Aldie, Virginia
Current Conditions -  °F | °C
As of 4:15 AM on Saturday 01 Nov 2014 (Local Time) from KJYO Reporting Station
Overcast Overcast  
Wind Chill: 43°   Ceiling: 3900
Heat Index: 46°   Visibility: 10mi
Dew Point: 37°   Wind: 7mph
Humidity: 71%   Direction: 360°N
Pressure: 29.8"   Gusts: NA
Location:  38.98°N, 77.64°W
Report Text: KJYO 010815Z AUTO 36006KT 10SM BKN039 OVC055 08/03 A2980 RMK AO2
Loading
Personal Weather Stations






























Interactive Weather Map
Tropical Storm Tracking
New forecast layout! Learn more

10-Day Weather Forecast

Advertisements
Track Severe Weather on mobile